Wetterdaten: aktuell Samstag, 04.02.2023 20:30
Datum Zeit Temp. A. Feuchte A. Luftdruck Regen Wind Richtung Richtung Sonnenschein ET UV Solar Taupunkt Windchill Windben
04.02.2023 20:30 -1,2 C 86 % 1039,1 hPa 0,0 l/m 0,0 km/h (0 Bft) N 5 0 min 0,000 mm 0,0 UV-I 0 W/m -3,2 C -1,2 C 0,0 km/h (0 Bft)
04.02.2023 19:30 -0,8 C 85 % 1038,9 hPa 0,0 l/m 0,0 km/h (0 Bft) N 5 0 min 0,000 mm 0,0 UV-I 0 W/m -3,0 C -0,8 C 0,0 km/h (0 Bft)
04.02.2023 18:30 0,1 C 83 % 1038,8 hPa 0,0 l/m 0,0 km/h (0 Bft) N 5 0 min 0,000 mm 0,0 UV-I 0 W/m -2,4 C 0,1 C 0,0 km/h (0 Bft)
04.02.2023 17:30 1,4 C 80 % 1038,7 hPa 0,0 l/m 0,2 km/h (0 Bft) N 5 0 min 0,000 mm 0,0 UV-I 0 W/m -1,7 C 1,4 C 4,8 km/h (1 Bft)
04.02.2023 16:30 2,8 C 75 % 1038,2 hPa 0,0 l/m 0,2 km/h (0 Bft) N-NW 338 0 min 0,025 mm 0,0 UV-I 11 W/m -1,2 C 2,8 C 3,2 km/h (1 Bft)
04.02.2023 15:30 3,2 C 73 % 1038,1 hPa 0,0 l/m 0,2 km/h (0 Bft) N 360 25 min 0,102 mm 0,0 UV-I 37 W/m -1,2 C 3,2 C 3,2 km/h (1 Bft)
04.02.2023 14:30 5,1 C 69 % 1037,8 hPa 0,0 l/m 1,6 km/h (1 Bft) N-NW 331 25 min 0,102 mm 0,8 UV-I 58 W/m -0,1 C 5,1 C 4,8 km/h (1 Bft)
04.02.2023 13:30 5,7 C 66 % 1037,5 hPa 0,0 l/m 0,9 km/h (0 Bft) NW 317 20 min 0,101 mm 0,6 UV-I 149 W/m -0,1 C 5,7 C 3,2 km/h (1 Bft)
04.02.2023 12:30 4,1 C 75 % 1037,2 hPa 0,0 l/m 0,8 km/h (0 Bft) N 5 30 min 0,102 mm 0,8 UV-I 121 W/m 0,1 C 4,1 C 3,2 km/h (1 Bft)
04.02.2023 11:30 3,9 C 79 % 1037,0 hPa 0,0 l/m 1,6 km/h (1 Bft) N-NW 330 55 min 0,101 mm 0,8 UV-I 209 W/m 0,6 C 3,9 C 6,4 km/h (2 Bft)
04.02.2023 10:30 3,4 C 84 % 1036,3 hPa 0,0 l/m 1,2 km/h (1 Bft) O-NO 58 45 min 0,027 mm 0,8 UV-I 246 W/m 1,0 C 3,4 C 11,3 km/h (2 Bft)
04.02.2023 09:30 2,2 C 86 % 1035,6 hPa 0,0 l/m 1,6 km/h (1 Bft) N-NO 22 55 min 0,025 mm 0,5 UV-I 169 W/m 0,1 C 2,2 C 11,3 km/h (2 Bft)
04.02.2023 08:30 0,7 C 89 % 1034,4 hPa 0,0 l/m 1,6 km/h (1 Bft) N 360 0 min 0,000 mm 0,0 UV-I 25 W/m -0,9 C 0,7 C 8,0 km/h (2 Bft)
04.02.2023 07:30 1,2 C 90 % 1033,7 hPa 0,0 l/m 0,0 km/h (0 Bft) N-NO 22 0 min 0,000 mm 0,0 UV-I 0 W/m -0,3 C 1,2 C 6,4 km/h (2 Bft)
04.02.2023 06:30 1,2 C 89 % 1032,4 hPa 0,0 l/m 3,2 km/h (1 Bft) N-NW 337 0 min 0,000 mm 0,0 UV-I 0 W/m -0,4 C 1,2 C 6,4 km/h (2 Bft)
04.02.2023 05:30 1,9 C 88 % 1031,3 hPa 0,0 l/m 6,4 km/h (2 Bft) N 0 0 min 0,000 mm 0,0 UV-I 0 W/m 0,1 C 1,9 C 0,0 km/h (0 Bft)
04.02.2023 04:30 2,1 C 88 % 1029,9 hPa 0,0 l/m 3,2 km/h (1 Bft) N-NW 337 0 min 0,000 mm 0,0 UV-I 0 W/m 0,3 C 2,1 C 4,8 km/h (1 Bft)
04.02.2023 03:30 2,3 C 87 % 1028,4 hPa 0,0 l/m 1,6 km/h (1 Bft) W 270 0 min 0,000 mm 0,0 UV-I 0 W/m 0,4 C 2,3 C 14,5 km/h (3 Bft)
04.02.2023 02:30 2,8 C 89 % 1026,5 hPa 0,0 l/m 3,2 km/h (1 Bft) N 0 0 min 0,000 mm 0,0 UV-I 0 W/m 1,2 C 2,8 C 0,0 km/h (0 Bft)
04.02.2023 01:30 3,3 C 87 % 1024,5 hPa 0,6 l/m 4,8 km/h (1 Bft) NW 315 0 min 0,025 mm 0,0 UV-I 0 W/m 1,3 C 3,3 C 12,9 km/h (3 Bft)
04.02.2023 00:30 5,5 C 86 % 1022,7 hPa 0,2 l/m 9,7 km/h (2 Bft) NW 315 0 min 0,025 mm 0,0 UV-I 0 W/m 3,3 C 2,8 C 24,1 km/h (4 Bft)
04.02.2023 00:00 6,3 C 80 % 1022,2 hPa 0,0 l/m 11,3 km/h (2 Bft) NW 315 0 min 0,025 mm 0,0 UV-I 0 W/m 3,1 C 2,7 C 22,5 km/h (4 Bft)
_ Min-Zeit 20:05 13:35 00:00 - 05:55 - - - - - - 19:50 20:05 02:30
Minimum _ -1,3 C 65 % 1022,2 hPa - 0,0 km/h (0 Bft) - - - - - - -3,4 C -1,3 C 0,0 km/h (0 Bft)
_ Max-Zeit 00:00 07:00 20:10 00:30 01:15 - - 08:40 12:00 12:00 13:25 00:30 00:15 00:35
Maximum _ 6,4 C 90 % 1039,1 hPa 0,2 l/m 12,9 km/h
NW (3 Bft)
- - 5 min 0,102 mm 1,1 UV-I 480 W/m 3,3 C 5,7 C 30,6 km/h
W-NW (5 Bft)
Durchschnitt _ 2,5 C 83 % 1034,0 hPa #0,8 l/m 2,2 km/h (1 Bft) N-NW - #4:15 h #0,635 mm 0,8 UV-I 161 W/m -0,2 C 2,4 C 6,6 km/h (2 Bft)